sensor_id;sensor_type;location;lat;lon;timestamp;pressure;altitude;pressure_sealevel;temperature;humidity
72038;BME280;59900;50.788;12.904;2024-03-02T00:02:00;96419.28;;;7.53;100.00
72038;BME280;59900;50.788;12.904;2024-03-02T00:04:25;96412.25;;;7.54;100.00
72038;BME280;59900;50.788;12.904;2024-03-02T00:06:52;96416.44;;;7.55;100.00
72038;BME280;59900;50.788;12.904;2024-03-02T00:09:19;96407.63;;;7.56;100.00
72038;BME280;59900;50.788;12.904;2024-03-02T00:11:45;96407.41;;;7.57;100.00
72038;BME280;59900;50.788;12.904;2024-03-02T00:14:10;96408.41;;;7.56;100.00
72038;BME280;59900;50.788;12.904;2024-03-02T00:16:35;96404.19;;;7.55;100.00
72038;BME280;59900;50.788;12.904;2024-03-02T00:19:03;96409.81;;;7.52;100.00
72038;BME280;59900;50.788;12.904;2024-03-02T00:21:30;96404.19;;;7.49;100.00
72038;BME280;59900;50.788;12.904;2024-03-02T00:23:55;96401.81;;;7.47;100.00
72038;BME280;59900;50.788;12.904;2024-03-02T00:26:21;96397.97;;;7.50;100.00
72038;BME280;59900;50.788;12.904;2024-03-02T00:28:46;96401.19;;;7.52;100.00
72038;BME280;59900;50.788;12.904;2024-03-02T00:31:12;96401.19;;;7.52;100.00
72038;BME280;59900;50.788;12.904;2024-03-02T00:33:45;96398.38;;;7.53;100.00
72038;BME280;59900;50.788;12.904;2024-03-02T00:36:16;96400.00;;;7.54;100.00
72038;BME280;59900;50.788;12.904;2024-03-02T00:38:50;96401.97;;;7.52;100.00
72038;BME280;59900;50.788;12.904;2024-03-02T00:41:27;96403.41;;;7.48;100.00
72038;BME280;59900;50.788;12.904;2024-03-02T00:44:01;96406.22;;;7.47;100.00
72038;BME280;59900;50.788;12.904;2024-03-02T00:46:33;96402.00;;;7.46;100.00
72038;BME280;59900;50.788;12.904;2024-03-02T00:49:00;96404.41;;;7.47;100.00
72038;BME280;59900;50.788;12.904;2024-03-02T00:51:30;96404.00;;;7.44;100.00
72038;BME280;59900;50.788;12.904;2024-03-02T00:53:58;96404.00;;;7.44;100.00
72038;BME280;59900;50.788;12.904;2024-03-02T00:56:24;96405.03;;;7.43;100.00
72038;BME280;59900;50.788;12.904;2024-03-02T00:58:50;96404.81;;;7.44;100.00
72038;BME280;59900;50.788;12.904;2024-03-02T01:01:17;96411.25;;;7.42;100.00
72038;BME280;59900;50.788;12.904;2024-03-02T01:03:42;96404.63;;;7.39;100.00
72038;BME280;59900;50.788;12.904;2024-03-02T01:06:08;96407.25;;;7.39;100.00
72038;BME280;59900;50.788;12.904;2024-03-02T01:08:34;96408.25;;;7.38;100.00
72038;BME280;59900;50.788;12.904;2024-03-02T01:11:00;96400.00;;;7.41;100.00
72038;BME280;59900;50.788;12.904;2024-03-02T01:13:25;96409.66;;;7.41;100.00
72038;BME280;59900;50.788;12.904;2024-03-02T01:15:51;96395.59;;;7.42;100.00
72038;BME280;59900;50.788;12.904;2024-03-02T01:18:16;96395.59;;;7.42;100.00
72038;BME280;59900;50.788;12.904;2024-03-02T01:20:42;96389.53;;;7.41;100.00
72038;BME280;59900;50.788;12.904;2024-03-02T01:23:07;96387.53;;;7.43;100.00
72038;BME280;59900;50.788;12.904;2024-03-02T01:25:32;96395.97;;;7.45;100.00
72038;BME280;59900;50.788;12.904;2024-03-02T01:27:58;96393.56;;;7.44;100.00
72038;BME280;59900;50.788;12.904;2024-03-02T01:30:23;96389.94;;;7.45;100.00
72038;BME280;59900;50.788;12.904;2024-03-02T01:32:48;96391.34;;;7.47;100.00
72038;BME280;59900;50.788;12.904;2024-03-02T01:35:13;96390.53;;;7.47;100.00
72038;BME280;59900;50.788;12.904;2024-03-02T01:37:40;96392.34;;;7.46;100.00
72038;BME280;59900;50.788;12.904;2024-03-02T01:40:06;96389.31;;;7.49;100.00
72038;BME280;59900;50.788;12.904;2024-03-02T01:42:37;96379.09;;;7.48;100.00
72038;BME280;59900;50.788;12.904;2024-03-02T01:45:06;96380.09;;;7.47;100.00
72038;BME280;59900;50.788;12.904;2024-03-02T01:47:32;96388.13;;;7.45;100.00
72038;BME280;59900;50.788;12.904;2024-03-02T01:49:58;96376.06;;;7.44;100.00
72038;BME280;59900;50.788;12.904;2024-03-02T01:52:23;96371.84;;;7.43;100.00
72038;BME280;59900;50.788;12.904;2024-03-02T01:54:49;96374.66;;;7.42;100.00
72038;BME280;59900;50.788;12.904;2024-03-02T01:57:14;96374.44;;;7.43;100.00
72038;BME280;59900;50.788;12.904;2024-03-02T01:59:39;96377.06;;;7.43;100.00
72038;BME280;59900;50.788;12.904;2024-03-02T02:02:04;96368.00;;;7.46;100.00
72038;BME280;59900;50.788;12.904;2024-03-02T02:04:30;96381.47;;;7.49;100.00
72038;BME280;59900;50.788;12.904;2024-03-02T02:06:56;96377.88;;;7.50;100.00
72038;BME280;59900;50.788;12.904;2024-03-02T02:09:21;96376.25;;;7.49;100.00
72038;BME280;59900;50.788;12.904;2024-03-02T02:11:46;96371.63;;;7.51;100.00
72038;BME280;59900;50.788;12.904;2024-03-02T02:14:12;96375.84;;;7.52;100.00
72038;BME280;59900;50.788;12.904;2024-03-02T02:16:37;96377.06;;;7.56;100.00
72038;BME280;59900;50.788;12.904;2024-03-02T02:19:02;96376.84;;;7.58;100.00
72038;BME280;59900;50.788;12.904;2024-03-02T02:21:28;96376.63;;;7.59;100.00
72038;BME280;59900;50.788;12.904;2024-03-02T02:23:53;96366.19;;;7.59;100.00
72038;BME280;59900;50.788;12.904;2024-03-02T02:26:18;96373.00;;;7.60;100.00
72038;BME280;59900;50.788;12.904;2024-03-02T02:28:43;96359.34;;;7.58;100.00
72038;BME280;59900;50.788;12.904;2024-03-02T02:31:12;96364.97;;;7.55;100.00
72038;BME280;59900;50.788;12.904;2024-03-02T02:33:41;96368.63;;;7.54;100.00
72038;BME280;59900;50.788;12.904;2024-03-02T02:36:07;96361.19;;;7.51;100.00
72038;BME280;59900;50.788;12.904;2024-03-02T02:38:33;96367.19;;;7.52;100.00
72038;BME280;59900;50.788;12.904;2024-03-02T02:41:01;96368.41;;;7.56;100.00
72038;BME280;59900;50.788;12.904;2024-03-02T02:43:27;96370.03;;;7.57;100.00
72038;BME280;59900;50.788;12.904;2024-03-02T02:45:52;96370.59;;;7.59;100.00
72038;BME280;59900;50.788;12.904;2024-03-02T02:48:17;96363.56;;;7.59;100.00
72038;BME280;59900;50.788;12.904;2024-03-02T02:50:43;96367.78;;;7.60;100.00
72038;BME280;59900;50.788;12.904;2024-03-02T02:53:08;96371.81;;;7.63;100.00
72038;BME280;59900;50.788;12.904;2024-03-02T02:55:35;96367.16;;;7.65;100.00
72038;BME280;59900;50.788;12.904;2024-03-02T02:58:08;96373.22;;;7.65;100.00
72038;BME280;59900;50.788;12.904;2024-03-02T03:00:33;96371.41;;;7.59;100.00
72038;BME280;59900;50.788;12.904;2024-03-02T03:02:58;96371.00;;;7.56;100.00
72038;BME280;59900;50.788;12.904;2024-03-02T03:05:24;96374.44;;;7.50;100.00
72038;BME280;59900;50.788;12.904;2024-03-02T03:07:49;96368.00;;;7.46;100.00
72038;BME280;59900;50.788;12.904;2024-03-02T03:10:17;96362.41;;;7.42;100.00
72038;BME280;59900;50.788;12.904;2024-03-02T03:12:42;96364.63;;;7.45;100.00
72038;BME280;59900;50.788;12.904;2024-03-02T03:15:09;96363.19;;;7.49;100.00
72038;BME280;59900;50.788;12.904;2024-03-02T03:17:34;96364.56;;;7.52;100.00
72038;BME280;59900;50.788;12.904;2024-03-02T03:20:00;96361.97;;;7.52;100.00
72038;BME280;59900;50.788;12.904;2024-03-02T03:22:27;96362.59;;;7.54;100.00
72038;BME280;59900;50.788;12.904;2024-03-02T03:24:53;96367.41;;;7.57;100.00
72038;BME280;59900;50.788;12.904;2024-03-02T03:27:18;96373.44;;;7.57;100.00
72038;BME280;59900;50.788;12.904;2024-03-02T03:29:44;96375.03;;;7.58;100.00
72038;BME280;59900;50.788;12.904;2024-03-02T03:32:10;96372.41;;;7.58;100.00
72038;BME280;59900;50.788;12.904;2024-03-02T03:34:35;96377.44;;;7.60;100.00
72038;BME280;59900;50.788;12.904;2024-03-02T03:37:00;96372.41;;;7.58;100.00
72038;BME280;59900;50.788;12.904;2024-03-02T03:39:26;96364.78;;;7.57;100.00
72038;BME280;59900;50.788;12.904;2024-03-02T03:41:51;96373.44;;;7.57;100.00
72038;BME280;59900;50.788;12.904;2024-03-02T03:44:16;96379.66;;;7.56;100.00
72038;BME280;59900;50.788;12.904;2024-03-02T03:46:42;96374.03;;;7.53;100.00
72038;BME280;59900;50.788;12.904;2024-03-02T03:49:07;96375.25;;;7.50;100.00
72038;BME280;59900;50.788;12.904;2024-03-02T03:51:33;96383.28;;;7.49;100.00
72038;BME280;59900;50.788;12.904;2024-03-02T03:53:58;96385.72;;;7.50;100.00
72038;BME280;59900;50.788;12.904;2024-03-02T03:56:23;96392.75;;;7.50;100.00
72038;BME280;59900;50.788;12.904;2024-03-02T03:58:49;96384.31;;;7.48;100.00
72038;BME280;59900;50.788;12.904;2024-03-02T04:01:14;96390.13;;;7.50;100.00
72038;BME280;59900;50.788;12.904;2024-03-02T04:03:39;96400.41;;;7.51;100.00
72038;BME280;59900;50.788;12.904;2024-03-02T04:06:05;96388.31;;;7.50;100.00
72038;BME280;59900;50.788;12.904;2024-03-02T04:08:30;96396.97;;;7.44;100.00
72038;BME280;59900;50.788;12.904;2024-03-02T04:10:55;96402.03;;;7.39;100.00
72038;BME280;59900;50.788;12.904;2024-03-02T04:13:21;96400.22;;;7.33;100.00
72038;BME280;59900;50.788;12.904;2024-03-02T04:15:46;96393.19;;;7.27;100.00
72038;BME280;59900;50.788;12.904;2024-03-02T04:18:11;96391.78;;;7.24;100.00
72038;BME280;59900;50.788;12.904;2024-03-02T04:20:37;96395.59;;;7.28;100.00
72038;BME280;59900;50.788;12.904;2024-03-02T04:23:02;96404.22;;;7.29;100.00
72038;BME280;59900;50.788;12.904;2024-03-02T04:25:27;96402.03;;;7.32;100.00
72038;BME280;59900;50.788;12.904;2024-03-02T04:27:52;96405.63;;;7.38;100.00
72038;BME280;59900;50.788;12.904;2024-03-02T04:30:18;96402.44;;;7.43;100.00
72038;BME280;59900;50.788;12.904;2024-03-02T04:32:43;96409.25;;;7.44;100.00
72038;BME280;59900;50.788;12.904;2024-03-02T04:35:11;96414.06;;;7.40;100.00
72038;BME280;59900;50.788;12.904;2024-03-02T04:37:37;96421.72;;;7.35;100.00
72038;BME280;59900;50.788;12.904;2024-03-02T04:40:03;96434.59;;;7.37;100.00
72038;BME280;59900;50.788;12.904;2024-03-02T04:42:28;96436.19;;;7.38;100.00
72038;BME280;59900;50.788;12.904;2024-03-02T04:44:53;96438.22;;;7.36;100.00
72038;BME280;59900;50.788;12.904;2024-03-02T04:47:18;96439.59;;;7.38;100.00
72038;BME280;59900;50.788;12.904;2024-03-02T04:49:44;96438.63;;;7.39;100.00
72038;BME280;59900;50.788;12.904;2024-03-02T04:52:09;96443.63;;;7.34;100.00
72038;BME280;59900;50.788;12.904;2024-03-02T04:54:34;96438.78;;;7.31;100.00
72038;BME280;59900;50.788;12.904;2024-03-02T04:57:19;96438.19;;;7.29;100.00
72038;BME280;59900;50.788;12.904;2024-03-02T04:59:45;96434.38;;;7.31;100.00
72038;BME280;59900;50.788;12.904;2024-03-02T05:02:10;96447.25;;;7.33;100.00
72038;BME280;59900;50.788;12.904;2024-03-02T05:04:35;96442.63;;;7.35;100.00
72038;BME280;59900;50.788;12.904;2024-03-02T05:07:00;96447.03;;;7.34;100.00
72038;BME280;59900;50.788;12.904;2024-03-02T05:09:26;96449.25;;;7.38;100.00
72038;BME280;59900;50.788;12.904;2024-03-02T05:11:51;96458.91;;;7.37;100.00
72038;BME280;59900;50.788;12.904;2024-03-02T05:14:36;96455.50;;;7.37;100.00
72038;BME280;59900;50.788;12.904;2024-03-02T05:17:01;96456.72;;;7.27;100.00
72038;BME280;59900;50.788;12.904;2024-03-02T05:19:26;96461.53;;;7.24;100.00
72038;BME280;59900;50.788;12.904;2024-03-02T05:21:51;96461.13;;;7.20;100.00
72038;BME280;59900;50.788;12.904;2024-03-02T05:24:17;96458.72;;;7.19;100.00
72038;BME280;59900;50.788;12.904;2024-03-02T05:26:42;96457.69;;;7.20;100.00
72038;BME280;59900;50.788;12.904;2024-03-02T05:29:07;96457.69;;;7.20;100.00
72038;BME280;59900;50.788;12.904;2024-03-02T05:31:32;96463.53;;;7.22;100.00
72038;BME280;59900;50.788;12.904;2024-03-02T05:33:58;96458.91;;;7.24;100.00
72038;BME280;59900;50.788;12.904;2024-03-02T05:36:23;96461.13;;;7.27;100.00
72038;BME280;59900;50.788;12.904;2024-03-02T05:38:48;96460.91;;;7.28;100.00
72038;BME280;59900;50.788;12.904;2024-03-02T05:41:13;96468.56;;;7.30;100.00
72038;BME280;59900;50.788;12.904;2024-03-02T05:43:39;96465.75;;;7.31;100.00
72038;BME280;59900;50.788;12.904;2024-03-02T05:46:04;96467.53;;;7.31;100.00
72038;BME280;59900;50.788;12.904;2024-03-02T05:48:30;96460.31;;;7.26;100.00
72038;BME280;59900;50.788;12.904;2024-03-02T05:50:55;96468.16;;;7.26;100.00
72038;BME280;59900;50.788;12.904;2024-03-02T05:53:20;96468.16;;;7.26;100.00
72038;BME280;59900;50.788;12.904;2024-03-02T05:55:45;96468.97;;;7.27;100.00
72038;BME280;59900;50.788;12.904;2024-03-02T05:58:11;96473.97;;;7.28;100.00
72038;BME280;59900;50.788;12.904;2024-03-02T06:00:54;96472.16;;;7.29;100.00
72038;BME280;59900;50.788;12.904;2024-03-02T06:03:20;96481.00;;;7.28;100.00
72038;BME280;59900;50.788;12.904;2024-03-02T06:05:45;96484.44;;;7.28;100.00
72038;BME280;59900;50.788;12.904;2024-03-02T06:08:10;96487.25;;;7.27;100.00
72038;BME280;59900;50.788;12.904;2024-03-02T06:10:36;96486.44;;;7.26;100.00
72038;BME280;59900;50.788;12.904;2024-03-02T06:13:01;96489.47;;;7.30;100.00
72038;BME280;59900;50.788;12.904;2024-03-02T06:15:26;96492.50;;;7.33;100.00
72038;BME280;59900;50.788;12.904;2024-03-02T06:17:51;96501.91;;;7.34;100.00
72038;BME280;59900;50.788;12.904;2024-03-02T06:20:17;96497.50;;;7.35;100.00
72038;BME280;59900;50.788;12.904;2024-03-02T06:22:42;96500.13;;;7.35;100.00
72038;BME280;59900;50.788;12.904;2024-03-02T06:25:07;96504.94;;;7.38;100.00
72038;BME280;59900;50.788;12.904;2024-03-02T06:27:33;96505.34;;;7.35;100.00
72038;BME280;59900;50.788;12.904;2024-03-02T06:29:58;96507.38;;;7.33;100.00
72038;BME280;59900;50.788;12.904;2024-03-02T06:32:23;96507.16;;;7.34;100.00
72038;BME280;59900;50.788;12.904;2024-03-02T06:34:50;96512.59;;;7.40;100.00
72038;BME280;59900;50.788;12.904;2024-03-02T06:37:15;96504.94;;;7.38;100.00
72038;BME280;59900;50.788;12.904;2024-03-02T06:39:41;96504.75;;;7.40;100.00
72038;BME280;59900;50.788;12.904;2024-03-02T06:42:06;96509.38;;;7.44;100.00
72038;BME280;59900;50.788;12.904;2024-03-02T06:44:31;96511.78;;;7.46;100.00
72038;BME280;59900;50.788;12.904;2024-03-02T06:46:56;96512.38;;;7.48;100.00
72038;BME280;59900;50.788;12.904;2024-03-02T06:49:22;96513.19;;;7.48;100.00
72038;BME280;59900;50.788;12.904;2024-03-02T06:51:47;96512.81;;;7.51;100.00
72038;BME280;59900;50.788;12.904;2024-03-02T06:54:12;96518.63;;;7.53;100.00
72038;BME280;59900;50.788;12.904;2024-03-02T06:56:37;96514.78;;;7.56;100.00
72038;BME280;59900;50.788;12.904;2024-03-02T06:59:04;96513.81;;;7.57;100.00
72038;BME280;59900;50.788;12.904;2024-03-02T07:01:29;96512.19;;;7.62;100.00
72038;BME280;59900;50.788;12.904;2024-03-02T07:03:54;96510.97;;;7.65;100.00
72038;BME280;59900;50.788;12.904;2024-03-02T07:06:19;96513.19;;;7.68;100.00
72038;BME280;59900;50.788;12.904;2024-03-02T07:08:45;96509.75;;;7.74;100.00
72038;BME280;59900;50.788;12.904;2024-03-02T07:11:10;96512.38;;;7.80;100.00
72038;BME280;59900;50.788;12.904;2024-03-02T07:13:35;96515.19;;;7.85;100.00
72038;BME280;59900;50.788;12.904;2024-03-02T07:16:00;96512.34;;;7.87;100.00
72038;BME280;59900;50.788;12.904;2024-03-02T07:18:32;96510.94;;;7.91;100.00
72038;BME280;59900;50.788;12.904;2024-03-02T07:20:58;96511.53;;;7.93;100.00
72038;BME280;59900;50.788;12.904;2024-03-02T07:23:26;96516.16;;;7.98;100.00
72038;BME280;59900;50.788;12.904;2024-03-02T07:25:53;96510.53;;;8.01;100.00
72038;BME280;59900;50.788;12.904;2024-03-02T07:28:21;96515.94;;;8.06;100.00
72038;BME280;59900;50.788;12.904;2024-03-02T07:30:46;96516.75;;;8.13;100.00
72038;BME280;59900;50.788;12.904;2024-03-02T07:33:12;96522.16;;;8.18;100.00
72038;BME280;59900;50.788;12.904;2024-03-02T07:35:37;96527.97;;;8.20;100.00
72038;BME280;59900;50.788;12.904;2024-03-02T07:38:02;96522.94;;;8.25;100.00
72038;BME280;59900;50.788;12.904;2024-03-02T07:40:28;96524.16;;;8.29;100.00
72038;BME280;59900;50.788;12.904;2024-03-02T07:42:53;96527.56;;;8.36;100.00
72038;BME280;59900;50.788;12.904;2024-03-02T07:45:18;96522.53;;;8.41;100.00
72038;BME280;59900;50.788;12.904;2024-03-02T07:47:44;96525.94;;;8.48;100.00
72038;BME280;59900;50.788;12.904;2024-03-02T07:50:09;96533.75;;;8.55;99.88
72038;BME280;59900;50.788;12.904;2024-03-02T07:52:35;96534.16;;;8.52;98.90
72038;BME280;59900;50.788;12.904;2024-03-02T07:55:00;96533.97;;;8.53;98.37
72038;BME280;59900;50.788;12.904;2024-03-02T07:57:25;96535.94;;;8.58;98.46
72038;BME280;59900;50.788;12.904;2024-03-02T07:59:51;96541.00;;;8.59;97.59
72038;BME280;59900;50.788;12.904;2024-03-02T08:02:16;96548.63;;;8.61;97.21
72038;BME280;59900;50.788;12.904;2024-03-02T08:04:41;96547.81;;;8.60;97.49
72038;BME280;59900;50.788;12.904;2024-03-02T08:07:06;96541.78;;;8.60;97.81
72038;BME280;59900;50.788;12.904;2024-03-02T08:09:32;96543.59;;;8.59;98.23
72038;BME280;59900;50.788;12.904;2024-03-02T08:11:57;96537.97;;;8.62;98.38
72038;BME280;59900;50.788;12.904;2024-03-02T08:14:23;96540.34;;;8.64;98.10
72038;BME280;59900;50.788;12.904;2024-03-02T08:16:48;96540.16;;;8.65;98.79
72038;BME280;59900;50.788;12.904;2024-03-02T08:19:14;96542.78;;;8.65;98.81
72038;BME280;59900;50.788;12.904;2024-03-02T08:21:39;96549.00;;;8.64;98.80
72038;BME280;59900;50.788;12.904;2024-03-02T08:24:04;96546.63;;;8.63;98.71
72038;BME280;59900;50.788;12.904;2024-03-02T08:26:30;96546.22;;;8.66;98.24
72038;BME280;59900;50.788;12.904;2024-03-02T08:28:57;96550.22;;;8.68;97.93
72038;BME280;59900;50.788;12.904;2024-03-02T08:31:22;96549.81;;;8.65;97.76
72038;BME280;59900;50.788;12.904;2024-03-02T08:33:48;96557.47;;;8.66;96.96
72038;BME280;59900;50.788;12.904;2024-03-02T08:36:13;96557.28;;;8.68;97.43
72038;BME280;59900;50.788;12.904;2024-03-02T08:38:38;96559.66;;;8.69;97.15
72038;BME280;59900;50.788;12.904;2024-03-02T08:41:04;96559.25;;;8.72;97.17
72038;BME280;59900;50.788;12.904;2024-03-02T08:43:29;96562.06;;;8.77;97.02
72038;BME280;59900;50.788;12.904;2024-03-02T08:45:55;96558.22;;;8.80;97.68
72038;BME280;59900;50.788;12.904;2024-03-02T08:48:20;96566.69;;;8.82;97.31
72038;BME280;59900;50.788;12.904;2024-03-02T08:50:46;96563.25;;;8.81;97.02
72038;BME280;59900;50.788;12.904;2024-03-02T08:53:11;96569.88;;;8.84;96.86
72038;BME280;59900;50.788;12.904;2024-03-02T08:55:36;96573.13;;;8.86;96.22
72038;BME280;59900;50.788;12.904;2024-03-02T08:58:02;96574.50;;;8.88;95.84
72038;BME280;59900;50.788;12.904;2024-03-02T09:00:27;96583.97;;;8.89;95.80
72038;BME280;59900;50.788;12.904;2024-03-02T09:02:52;96583.19;;;8.89;95.67
72038;BME280;59900;50.788;12.904;2024-03-02T09:05:17;96587.03;;;8.86;95.38
72038;BME280;59900;50.788;12.904;2024-03-02T09:07:43;96584.81;;;8.83;95.43
72038;BME280;59900;50.788;12.904;2024-03-02T09:10:08;96587.22;;;8.78;95.53
72038;BME280;59900;50.788;12.904;2024-03-02T09:12:34;96594.50;;;8.76;95.49
72038;BME280;59900;50.788;12.904;2024-03-02T09:15:00;96592.47;;;8.78;95.82
72038;BME280;59900;50.788;12.904;2024-03-02T09:17:26;96584.44;;;8.73;95.66
72038;BME280;59900;50.788;12.904;2024-03-02T09:19:51;96591.06;;;8.76;96.02
72038;BME280;59900;50.788;12.904;2024-03-02T09:22:18;96598.13;;;8.75;96.27
72038;BME280;59900;50.788;12.904;2024-03-02T09:24:43;96596.34;;;8.69;96.59
72038;BME280;59900;50.788;12.904;2024-03-02T09:27:08;96596.56;;;8.68;97.03
72038;BME280;59900;50.788;12.904;2024-03-02T09:29:34;96590.09;;;8.70;97.28
72038;BME280;59900;50.788;12.904;2024-03-02T09:31:59;96585.28;;;8.67;96.78
72038;BME280;59900;50.788;12.904;2024-03-02T09:34:24;96587.31;;;8.65;97.01
72038;BME280;59900;50.788;12.904;2024-03-02T09:36:51;96582.47;;;8.69;97.00
72038;BME280;59900;50.788;12.904;2024-03-02T09:39:16;96580.22;;;8.72;96.83
72038;BME280;59900;50.788;12.904;2024-03-02T09:41:43;96578.78;;;8.76;95.77
72038;BME280;59900;50.788;12.904;2024-03-02T09:44:09;96577.97;;;8.82;95.05
72038;BME280;59900;50.788;12.904;2024-03-02T09:46:34;96583.78;;;8.91;95.32
72038;BME280;59900;50.788;12.904;2024-03-02T09:49:01;96581.72;;;8.99;94.49
72038;BME280;59900;50.788;12.904;2024-03-02T09:51:27;96587.50;;;9.08;94.09
72038;BME280;59900;50.788;12.904;2024-03-02T09:53:53;96578.78;;;9.21;93.90
72038;BME280;59900;50.788;12.904;2024-03-02T09:56:19;96581.72;;;9.31;93.02
72038;BME280;59900;50.788;12.904;2024-03-02T09:58:45;96578.81;;;9.45;93.49
72038;BME280;59900;50.788;12.904;2024-03-02T10:01:11;96582.75;;;9.61;92.42
72038;BME280;59900;50.788;12.904;2024-03-02T10:03:39;96591.56;;;9.73;91.26
72038;BME280;59900;50.788;12.904;2024-03-02T10:06:23;96582.56;;;9.87;90.20
72038;BME280;59900;50.788;12.904;2024-03-02T10:08:49;96577.41;;;9.99;89.75
72038;BME280;59900;50.788;12.904;2024-03-02T10:11:29;96577.13;;;10.07;88.15
72038;BME280;59900;50.788;12.904;2024-03-02T10:14:11;96577.84;;;10.21;88.26
72038;BME280;59900;50.788;12.904;2024-03-02T10:16:39;96583.41;;;10.31;87.55
72038;BME280;59900;50.788;12.904;2024-03-02T10:19:21;96569.50;;;10.30;86.47
72038;BME280;59900;50.788;12.904;2024-03-02T10:21:48;96573.84;;;10.36;86.62
72038;BME280;59900;50.788;12.904;2024-03-02T10:24:14;96572.41;;;10.40;86.70
72038;BME280;59900;50.788;12.904;2024-03-02T10:26:40;96567.66;;;10.49;86.46
72038;BME280;59900;50.788;12.904;2024-03-02T10:29:07;96566.47;;;10.63;85.94
72038;BME280;59900;50.788;12.904;2024-03-02T10:31:33;96569.78;;;10.77;85.46
72038;BME280;59900;50.788;12.904;2024-03-02T10:33:59;96568.22;;;10.87;85.27
72038;BME280;59900;50.788;12.904;2024-03-02T10:36:25;96569.97;;;10.93;84.68
72038;BME280;59900;50.788;12.904;2024-03-02T10:38:51;96571.47;;;11.01;83.91
72038;BME280;59900;50.788;12.904;2024-03-02T10:41:23;96565.34;;;11.07;83.23
72038;BME280;59900;50.788;12.904;2024-03-02T10:43:50;96570.75;;;11.12;82.73
72038;BME280;59900;50.788;12.904;2024-03-02T10:46:19;96561.31;;;11.04;81.95
72038;BME280;59900;50.788;12.904;2024-03-02T10:48:45;96557.91;;;11.04;81.96
72038;BME280;59900;50.788;12.904;2024-03-02T10:51:11;96553.31;;;10.99;82.35
72038;BME280;59900;50.788;12.904;2024-03-02T10:53:36;96558.56;;;10.99;82.13
72038;BME280;59900;50.788;12.904;2024-03-02T10:56:03;96554.69;;;11.02;82.14
72038;BME280;59900;50.788;12.904;2024-03-02T10:58:33;96557.91;;;11.04;82.06
72038;BME280;59900;50.788;12.904;2024-03-02T11:01:03;96551.63;;;11.05;82.57
72038;BME280;59900;50.788;12.904;2024-03-02T11:03:33;96551.31;;;11.13;82.63
72038;BME280;59900;50.788;12.904;2024-03-02T11:06:00;96557.38;;;11.13;82.08
72038;BME280;59900;50.788;12.904;2024-03-02T11:08:27;96540.81;;;11.24;83.59
72038;BME280;59900;50.788;12.904;2024-03-02T11:11:06;96546.81;;;11.32;83.27
72038;BME280;59900;50.788;12.904;2024-03-02T11:13:33;96542.47;;;11.37;82.60
72038;BME280;59900;50.788;12.904;2024-03-02T11:18:57;96535.16;;;11.51;80.95
72038;BME280;59900;50.788;12.904;2024-03-02T11:21:24;96543.78;;;11.58;79.93
72038;BME280;59900;50.788;12.904;2024-03-02T11:23:49;96540.50;;;11.62;79.85
72038;BME280;59900;50.788;12.904;2024-03-02T11:28:43;96552.44;;;11.76;78.29
72038;BME280;59900;50.788;12.904;2024-03-02T11:31:09;96545.22;;;11.84;78.11
72038;BME280;59900;50.788;12.904;2024-03-02T11:33:34;96535.75;;;11.94;77.79
72038;BME280;59900;50.788;12.904;2024-03-02T11:36:00;96537.78;;;12.04;77.91
72038;BME280;59900;50.788;12.904;2024-03-02T11:38:28;96538.38;;;12.17;77.34
72038;BME280;59900;50.788;12.904;2024-03-02T11:40:53;96535.72;;;12.29;75.83
72038;BME280;59900;50.788;12.904;2024-03-02T11:43:19;96544.41;;;12.41;75.79
72038;BME280;59900;50.788;12.904;2024-03-02T11:45:44;96532.34;;;12.57;75.20
72038;BME280;59900;50.788;12.904;2024-03-02T11:48:12;96532.66;;;12.72;72.96
72038;BME280;59900;50.788;12.904;2024-03-02T11:50:46;96538.16;;;12.82;72.09
72038;BME280;59900;50.788;12.904;2024-03-02T11:53:12;96523.47;;;12.74;68.00
72038;BME280;59900;50.788;12.904;2024-03-02T11:55:39;96528.75;;;12.74;67.57
72038;BME280;59900;50.788;12.904;2024-03-02T11:58:06;96533.03;;;12.64;67.60
72038;BME280;59900;50.788;12.904;2024-03-02T12:00:32;96528.66;;;12.69;68.47
72038;BME280;59900;50.788;12.904;2024-03-02T12:03:05;96530.78;;;12.84;69.16
72038;BME280;59900;50.788;12.904;2024-03-02T12:05:31;96525.47;;;12.96;68.86
72038;BME280;59900;50.788;12.904;2024-03-02T12:08:01;96528.06;;;13.07;68.83
72038;BME280;59900;50.788;12.904;2024-03-02T12:10:27;96518.44;;;13.13;68.82
72038;BME280;59900;50.788;12.904;2024-03-02T12:12:59;96511.19;;;13.20;67.83
72038;BME280;59900;50.788;12.904;2024-03-02T12:15:29;96512.16;;;13.30;67.30
72038;BME280;59900;50.788;12.904;2024-03-02T12:17:55;96509.44;;;13.25;66.34
72038;BME280;59900;50.788;12.904;2024-03-02T12:20:21;96503.59;;;13.23;66.04
72038;BME280;59900;50.788;12.904;2024-03-02T12:22:49;96500.38;;;13.21;66.09
72038;BME280;59900;50.788;12.904;2024-03-02T12:25:15;96503.50;;;13.18;67.33
72038;BME280;59900;50.788;12.904;2024-03-02T12:27:40;96508.13;;;13.11;65.58
72038;BME280;59900;50.788;12.904;2024-03-02T12:30:06;96505.06;;;13.03;66.51
72038;BME280;59900;50.788;12.904;2024-03-02T12:32:35;96515.25;;;12.99;67.84
72038;BME280;59900;50.788;12.904;2024-03-02T12:35:01;96502.53;;;13.08;67.44
72038;BME280;59900;50.788;12.904;2024-03-02T12:37:26;96504.16;;;13.25;67.26
72038;BME280;59900;50.788;12.904;2024-03-02T12:39:53;96503.38;;;13.41;67.41
72038;BME280;59900;50.788;12.904;2024-03-02T12:42:18;96506.66;;;13.65;66.57
72038;BME280;59900;50.788;12.904;2024-03-02T12:44:43;96497.88;;;13.76;65.90
72038;BME280;59900;50.788;12.904;2024-03-02T12:47:09;96497.22;;;14.02;64.73
72038;BME280;59900;50.788;12.904;2024-03-02T12:49:34;96484.84;;;14.25;64.20
72038;BME280;59900;50.788;12.904;2024-03-02T12:52:00;96485.81;;;14.35;64.11
72038;BME280;59900;50.788;12.904;2024-03-02T12:54:25;96490.50;;;14.50;63.51